Terminal Aerodrome Forecast
Issued by NWS

Home | Current Version | Previous Version | Text Only | Print | Product List | Glossary On
Versions: 1 2 3 4 5 6 7 8 9 10 11 12 13 14 15 16 17 18 19 20 21 22 23 24 25 26 27 28 29 30 31 32
450
FTUS45 KSLC 101134
TAFLGU
TAF
KLGU 101134Z 1012/1112 00000KT 1/4SM FZFG VV001
     FM101700 00000KT 1SM BR OVC004
     FM102000 VRB03KT 4SM BR SCT004 SCT200
     FM110300 VRB03KT 1SM BR BKN004=

USA.gov is the U.S. government's official web portal to all federal, state and local government web resources and services.